sensor_id;sensor_type;location;lat;lon;timestamp;P1;durP1;ratioP1;P2;durP2;ratioP2
25637;SDS011;13496;51.040;13.680;2023-01-06T00:00:37;3.40;;;1.63;;
25637;SDS011;13496;51.040;13.680;2023-01-06T00:05:39;1.90;;;1.67;;
25637;SDS011;13496;51.040;13.680;2023-01-06T00:10:41;3.03;;;1.70;;
25637;SDS011;13496;51.040;13.680;2023-01-06T00:15:42;2.43;;;1.70;;
25637;SDS011;13496;51.040;13.680;2023-01-06T00:20:44;2.30;;;1.40;;
25637;SDS011;13496;51.040;13.680;2023-01-06T00:25:49;2.75;;;1.65;;
25637;SDS011;13496;51.040;13.680;2023-01-06T00:30:51;1.73;;;1.50;;
25637;SDS011;13496;51.040;13.680;2023-01-06T00:35:56;1.47;;;1.33;;
25637;SDS011;13496;51.040;13.680;2023-01-06T00:41:01;1.47;;;1.37;;
25637;SDS011;13496;51.040;13.680;2023-01-06T00:46:28;1.70;;;1.40;;
25637;SDS011;13496;51.040;13.680;2023-01-06T00:51:30;2.27;;;1.60;;
25637;SDS011;13496;51.040;13.680;2023-01-06T00:56:36;2.17;;;1.80;;
25637;SDS011;13496;51.040;13.680;2023-01-06T01:01:39;2.60;;;1.60;;
25637;SDS011;13496;51.040;13.680;2023-01-06T01:06:42;1.40;;;1.20;;
25637;SDS011;13496;51.040;13.680;2023-01-06T01:11:45;2.50;;;1.53;;
25637;SDS011;13496;51.040;13.680;2023-01-06T01:17:06;2.10;;;1.57;;
25637;SDS011;13496;51.040;13.680;2023-01-06T01:22:09;1.90;;;1.40;;
25637;SDS011;13496;51.040;13.680;2023-01-06T01:27:11;1.90;;;1.50;;
25637;SDS011;13496;51.040;13.680;2023-01-06T01:32:13;2.07;;;1.50;;
25637;SDS011;13496;51.040;13.680;2023-01-06T01:37:14;1.40;;;1.23;;
25637;SDS011;13496;51.040;13.680;2023-01-06T01:42:17;1.60;;;1.50;;
25637;SDS011;13496;51.040;13.680;2023-01-06T01:47:34;1.70;;;1.23;;
25637;SDS011;13496;51.040;13.680;2023-01-06T01:52:46;2.07;;;1.27;;
25637;SDS011;13496;51.040;13.680;2023-01-06T01:57:56;1.10;;;1.05;;
25637;SDS011;13496;51.040;13.680;2023-01-06T02:03:05;1.53;;;1.40;;
25637;SDS011;13496;51.040;13.680;2023-01-06T02:13:41;1.30;;;1.20;;
25637;SDS011;13496;51.040;13.680;2023-01-06T02:35:13;2.50;;;1.45;;
25637;SDS011;13496;51.040;13.680;2023-01-06T02:40:39;1.20;;;1.10;;
25637;SDS011;13496;51.040;13.680;2023-01-06T02:46:07;1.67;;;1.47;;
25637;SDS011;13496;51.040;13.680;2023-01-06T02:51:30;1.53;;;1.23;;
25637;SDS011;13496;51.040;13.680;2023-01-06T02:56:44;1.97;;;1.20;;
25637;SDS011;13496;51.040;13.680;2023-01-06T03:01:53;1.97;;;1.30;;
25637;SDS011;13496;51.040;13.680;2023-01-06T03:06:57;1.10;;;1.00;;
25637;SDS011;13496;51.040;13.680;2023-01-06T03:12:05;1.60;;;1.03;;
25637;SDS011;13496;51.040;13.680;2023-01-06T03:17:11;1.27;;;1.17;;
25637;SDS011;13496;51.040;13.680;2023-01-06T03:22:12;1.60;;;1.27;;
25637;SDS011;13496;51.040;13.680;2023-01-06T03:27:16;1.50;;;1.20;;
25637;SDS011;13496;51.040;13.680;2023-01-06T03:43:03;1.20;;;1.10;;
25637;SDS011;13496;51.040;13.680;2023-01-06T03:48:34;1.27;;;1.17;;
25637;SDS011;13496;51.040;13.680;2023-01-06T03:59:29;1.17;;;1.05;;
25637;SDS011;13496;51.040;13.680;2023-01-06T04:04:33;1.00;;;0.80;;
25637;SDS011;13496;51.040;13.680;2023-01-06T04:09:35;3.27;;;1.20;;
25637;SDS011;13496;51.040;13.680;2023-01-06T04:14:36;1.27;;;1.10;;
25637;SDS011;13496;51.040;13.680;2023-01-06T04:19:38;1.20;;;0.90;;
25637;SDS011;13496;51.040;13.680;2023-01-06T04:24:41;1.20;;;1.07;;
25637;SDS011;13496;51.040;13.680;2023-01-06T04:29:44;1.30;;;1.20;;
25637;SDS011;13496;51.040;13.680;2023-01-06T04:34:47;1.10;;;1.00;;
25637;SDS011;13496;51.040;13.680;2023-01-06T04:39:50;1.10;;;1.10;;
25637;SDS011;13496;51.040;13.680;2023-01-06T04:44:51;1.27;;;1.10;;
25637;SDS011;13496;51.040;13.680;2023-01-06T04:49:53;0.95;;;0.95;;
25637;SDS011;13496;51.040;13.680;2023-01-06T04:54:55;0.87;;;0.87;;
25637;SDS011;13496;51.040;13.680;2023-01-06T04:59:56;1.13;;;1.03;;
25637;SDS011;13496;51.040;13.680;2023-01-06T05:04:58;1.00;;;0.90;;
25637;SDS011;13496;51.040;13.680;2023-01-06T05:09:59;1.07;;;0.90;;
25637;SDS011;13496;51.040;13.680;2023-01-06T05:15:02;0.87;;;0.87;;
25637;SDS011;13496;51.040;13.680;2023-01-06T05:20:04;0.70;;;0.70;;
25637;SDS011;13496;51.040;13.680;2023-01-06T05:25:07;0.80;;;0.80;;
25637;SDS011;13496;51.040;13.680;2023-01-06T05:30:09;1.20;;;0.90;;
25637;SDS011;13496;51.040;13.680;2023-01-06T05:35:11;0.97;;;0.90;;
25637;SDS011;13496;51.040;13.680;2023-01-06T05:40:13;3.90;;;1.00;;
25637;SDS011;13496;51.040;13.680;2023-01-06T05:45:14;1.00;;;0.90;;
25637;SDS011;13496;51.040;13.680;2023-01-06T05:50:16;1.30;;;1.00;;
25637;SDS011;13496;51.040;13.680;2023-01-06T05:55:18;0.90;;;0.90;;
25637;SDS011;13496;51.040;13.680;2023-01-06T06:00:19;0.80;;;0.80;;
25637;SDS011;13496;51.040;13.680;2023-01-06T06:05:21;1.10;;;0.90;;
25637;SDS011;13496;51.040;13.680;2023-01-06T06:10:23;1.42;;;0.80;;
25637;SDS011;13496;51.040;13.680;2023-01-06T06:15:25;1.95;;;1.00;;
25637;SDS011;13496;51.040;13.680;2023-01-06T06:20:26;1.20;;;1.00;;
25637;SDS011;13496;51.040;13.680;2023-01-06T06:25:28;1.33;;;1.00;;
25637;SDS011;13496;51.040;13.680;2023-01-06T06:30:30;1.10;;;1.00;;
25637;SDS011;13496;51.040;13.680;2023-01-06T06:35:31;2.07;;;1.23;;
25637;SDS011;13496;51.040;13.680;2023-01-06T06:40:33;2.73;;;1.13;;
25637;SDS011;13496;51.040;13.680;2023-01-06T06:45:35;1.33;;;1.10;;
25637;SDS011;13496;51.040;13.680;2023-01-06T06:50:36;2.08;;;0.93;;
25637;SDS011;13496;51.040;13.680;2023-01-06T06:55:38;1.10;;;0.95;;
25637;SDS011;13496;51.040;13.680;2023-01-06T07:00:40;1.50;;;0.97;;
25637;SDS011;13496;51.040;13.680;2023-01-06T07:05:42;1.03;;;0.93;;
25637;SDS011;13496;51.040;13.680;2023-01-06T07:10:45;1.87;;;1.00;;
25637;SDS011;13496;51.040;13.680;2023-01-06T07:15:47;1.73;;;1.10;;
25637;SDS011;13496;51.040;13.680;2023-01-06T07:20:49;2.20;;;1.10;;
25637;SDS011;13496;51.040;13.680;2023-01-06T07:25:54;2.60;;;1.10;;
25637;SDS011;13496;51.040;13.680;2023-01-06T07:30:57;1.23;;;1.13;;
25637;SDS011;13496;51.040;13.680;2023-01-06T07:35:59;1.63;;;1.20;;
25637;SDS011;13496;51.040;13.680;2023-01-06T07:41:01;1.47;;;0.97;;
25637;SDS011;13496;51.040;13.680;2023-01-06T07:46:03;1.63;;;1.10;;
25637;SDS011;13496;51.040;13.680;2023-01-06T07:51:04;1.10;;;0.90;;
25637;SDS011;13496;51.040;13.680;2023-01-06T07:56:07;1.63;;;1.00;;
25637;SDS011;13496;51.040;13.680;2023-01-06T08:01:09;2.17;;;1.00;;
25637;SDS011;13496;51.040;13.680;2023-01-06T08:06:11;0.93;;;0.90;;
25637;SDS011;13496;51.040;13.680;2023-01-06T08:11:13;2.27;;;1.17;;
25637;SDS011;13496;51.040;13.680;2023-01-06T08:16:15;1.45;;;1.02;;
25637;SDS011;13496;51.040;13.680;2023-01-06T08:21:16;1.00;;;0.90;;
25637;SDS011;13496;51.040;13.680;2023-01-06T08:26:18;1.10;;;1.00;;
25637;SDS011;13496;51.040;13.680;2023-01-06T08:31:20;1.43;;;1.00;;
25637;SDS011;13496;51.040;13.680;2023-01-06T08:36:22;1.37;;;1.20;;
25637;SDS011;13496;51.040;13.680;2023-01-06T08:41:24;1.50;;;1.10;;
25637;SDS011;13496;51.040;13.680;2023-01-06T08:46:26;1.27;;;1.10;;
25637;SDS011;13496;51.040;13.680;2023-01-06T08:51:27;1.20;;;1.10;;
25637;SDS011;13496;51.040;13.680;2023-01-06T08:56:29;1.67;;;1.10;;
25637;SDS011;13496;51.040;13.680;2023-01-06T09:01:33;1.43;;;1.00;;
25637;SDS011;13496;51.040;13.680;2023-01-06T09:06:36;0.97;;;0.93;;
25637;SDS011;13496;51.040;13.680;2023-01-06T09:11:39;0.93;;;0.90;;
25637;SDS011;13496;51.040;13.680;2023-01-06T09:16:42;2.33;;;1.10;;
25637;SDS011;13496;51.040;13.680;2023-01-06T09:21:44;1.50;;;1.07;;
25637;SDS011;13496;51.040;13.680;2023-01-06T09:26:46;1.45;;;1.25;;
25637;SDS011;13496;51.040;13.680;2023-01-06T09:31:48;1.40;;;1.30;;
25637;SDS011;13496;51.040;13.680;2023-01-06T09:36:49;2.08;;;1.10;;
25637;SDS011;13496;51.040;13.680;2023-01-06T09:41:55;1.50;;;1.00;;
25637;SDS011;13496;51.040;13.680;2023-01-06T09:47:08;1.67;;;1.10;;
25637;SDS011;13496;51.040;13.680;2023-01-06T09:52:16;3.00;;;1.58;;
25637;SDS011;13496;51.040;13.680;2023-01-06T09:57:39;1.40;;;1.30;;
25637;SDS011;13496;51.040;13.680;2023-01-06T10:02:50;2.13;;;1.20;;
25637;SDS011;13496;51.040;13.680;2023-01-06T10:07:55;1.65;;;1.30;;
25637;SDS011;13496;51.040;13.680;2023-01-06T10:29:16;2.07;;;1.43;;
25637;SDS011;13496;51.040;13.680;2023-01-06T10:34:20;2.28;;;1.40;;
25637;SDS011;13496;51.040;13.680;2023-01-06T10:39:24;1.80;;;1.52;;
25637;SDS011;13496;51.040;13.680;2023-01-06T10:44:28;1.70;;;1.40;;
25637;SDS011;13496;51.040;13.680;2023-01-06T10:49:30;2.40;;;1.47;;
25637;SDS011;13496;51.040;13.680;2023-01-06T10:54:31;2.00;;;1.42;;
25637;SDS011;13496;51.040;13.680;2023-01-06T10:59:59;1.80;;;1.33;;
25637;SDS011;13496;51.040;13.680;2023-01-06T11:05:16;2.70;;;1.60;;
25637;SDS011;13496;51.040;13.680;2023-01-06T11:10:25;1.87;;;1.47;;
25637;SDS011;13496;51.040;13.680;2023-01-06T11:15:29;4.13;;;1.70;;
25637;SDS011;13496;51.040;13.680;2023-01-06T11:20:36;1.97;;;1.30;;
25637;SDS011;13496;51.040;13.680;2023-01-06T11:25:38;2.47;;;1.45;;
25637;SDS011;13496;51.040;13.680;2023-01-06T11:30:44;1.90;;;1.70;;
25637;SDS011;13496;51.040;13.680;2023-01-06T11:35:55;1.97;;;1.50;;
25637;SDS011;13496;51.040;13.680;2023-01-06T11:40:58;1.92;;;1.30;;
25637;SDS011;13496;51.040;13.680;2023-01-06T11:46:09;2.92;;;1.42;;
25637;SDS011;13496;51.040;13.680;2023-01-06T11:51:14;1.70;;;1.60;;
25637;SDS011;13496;51.040;13.680;2023-01-06T11:56:16;1.60;;;1.50;;
25637;SDS011;13496;51.040;13.680;2023-01-06T12:07:11;1.90;;;1.40;;
25637;SDS011;13496;51.040;13.680;2023-01-06T12:12:31;1.60;;;1.50;;
25637;SDS011;13496;51.040;13.680;2023-01-06T12:17:35;2.77;;;1.20;;
25637;SDS011;13496;51.040;13.680;2023-01-06T12:22:52;2.20;;;1.50;;
25637;SDS011;13496;51.040;13.680;2023-01-06T12:28:01;1.90;;;1.35;;
25637;SDS011;13496;51.040;13.680;2023-01-06T12:33:14;2.53;;;1.60;;
25637;SDS011;13496;51.040;13.680;2023-01-06T12:38:35;1.93;;;1.57;;
25637;SDS011;13496;51.040;13.680;2023-01-06T12:43:48;2.38;;;1.42;;
25637;SDS011;13496;51.040;13.680;2023-01-06T12:49:04;1.65;;;1.45;;
25637;SDS011;13496;51.040;13.680;2023-01-06T12:54:29;2.63;;;1.60;;
25637;SDS011;13496;51.040;13.680;2023-01-06T12:59:50;1.40;;;1.30;;
25637;SDS011;13496;51.040;13.680;2023-01-06T13:15:37;1.50;;;1.27;;
25637;SDS011;13496;51.040;13.680;2023-01-06T13:20:44;1.60;;;1.20;;
25637;SDS011;13496;51.040;13.680;2023-01-06T13:31:28;1.58;;;1.05;;
25637;SDS011;13496;51.040;13.680;2023-01-06T13:37:25;1.90;;;1.33;;
25637;SDS011;13496;51.040;13.680;2023-01-06T13:42:16;1.67;;;1.30;;
25637;SDS011;13496;51.040;13.680;2023-01-06T13:47:32;1.38;;;1.20;;
25637;SDS011;13496;51.040;13.680;2023-01-06T13:52:36;1.23;;;1.10;;
25637;SDS011;13496;51.040;13.680;2023-01-06T13:57:37;1.60;;;1.30;;
25637;SDS011;13496;51.040;13.680;2023-01-06T14:07:47;1.10;;;1.00;;
25637;SDS011;13496;51.040;13.680;2023-01-06T14:12:51;1.95;;;1.20;;
25637;SDS011;13496;51.040;13.680;2023-01-06T14:17:53;1.30;;;1.10;;
25637;SDS011;13496;51.040;13.680;2023-01-06T14:22:59;1.50;;;1.10;;
25637;SDS011;13496;51.040;13.680;2023-01-06T14:28:05;1.23;;;1.13;;
25637;SDS011;13496;51.040;13.680;2023-01-06T14:39:16;1.65;;;1.55;;
25637;SDS011;13496;51.040;13.680;2023-01-06T14:44:17;1.40;;;1.20;;
25637;SDS011;13496;51.040;13.680;2023-01-06T14:49:25;1.20;;;1.10;;
25637;SDS011;13496;51.040;13.680;2023-01-06T14:54:41;1.65;;;1.40;;
25637;SDS011;13496;51.040;13.680;2023-01-06T15:00:02;1.33;;;1.13;;
25637;SDS011;13496;51.040;13.680;2023-01-06T15:05:15;1.90;;;1.20;;
25637;SDS011;13496;51.040;13.680;2023-01-06T15:10:20;2.17;;;1.50;;
25637;SDS011;13496;51.040;13.680;2023-01-06T15:15:23;2.20;;;1.20;;
25637;SDS011;13496;51.040;13.680;2023-01-06T15:20:31;2.13;;;1.30;;
25637;SDS011;13496;51.040;13.680;2023-01-06T15:25:35;1.58;;;1.25;;
25637;SDS011;13496;51.040;13.680;2023-01-06T15:30:38;1.90;;;1.20;;
25637;SDS011;13496;51.040;13.680;2023-01-06T15:35:50;2.03;;;1.10;;
25637;SDS011;13496;51.040;13.680;2023-01-06T15:40:53;1.20;;;1.10;;
25637;SDS011;13496;51.040;13.680;2023-01-06T15:46:05;2.10;;;1.20;;
25637;SDS011;13496;51.040;13.680;2023-01-06T15:51:09;1.40;;;1.15;;
25637;SDS011;13496;51.040;13.680;2023-01-06T15:56:23;2.27;;;1.10;;
25637;SDS011;13496;51.040;13.680;2023-01-06T16:01:27;1.80;;;1.27;;
25637;SDS011;13496;51.040;13.680;2023-01-06T16:06:33;1.23;;;1.00;;
25637;SDS011;13496;51.040;13.680;2023-01-06T16:11:37;1.40;;;1.00;;
25637;SDS011;13496;51.040;13.680;2023-01-06T16:17:07;1.33;;;1.10;;
25637;SDS011;13496;51.040;13.680;2023-01-06T16:22:44;0.90;;;0.90;;
25637;SDS011;13496;51.040;13.680;2023-01-06T16:27:50;1.30;;;1.20;;
25637;SDS011;13496;51.040;13.680;2023-01-06T16:32:54;1.50;;;1.40;;
25637;SDS011;13496;51.040;13.680;2023-01-06T16:38:02;1.33;;;1.23;;
25637;SDS011;13496;51.040;13.680;2023-01-06T16:43:04;2.83;;;1.37;;
25637;SDS011;13496;51.040;13.680;2023-01-06T16:48:05;1.10;;;1.00;;
25637;SDS011;13496;51.040;13.680;2023-01-06T16:53:10;1.35;;;1.25;;
25637;SDS011;13496;51.040;13.680;2023-01-06T16:58:27;2.20;;;1.50;;
25637;SDS011;13496;51.040;13.680;2023-01-06T17:03:33;1.08;;;0.90;;
25637;SDS011;13496;51.040;13.680;2023-01-06T17:08:37;2.27;;;1.43;;
25637;SDS011;13496;51.040;13.680;2023-01-06T17:13:40;2.27;;;1.10;;
25637;SDS011;13496;51.040;13.680;2023-01-06T17:29:18;1.57;;;1.00;;
25637;SDS011;13496;51.040;13.680;2023-01-06T17:34:22;1.42;;;1.33;;
25637;SDS011;13496;51.040;13.680;2023-01-06T17:39:30;1.77;;;1.20;;
25637;SDS011;13496;51.040;13.680;2023-01-06T17:44:47;2.63;;;1.27;;
25637;SDS011;13496;51.040;13.680;2023-01-06T17:49:56;1.37;;;1.20;;
25637;SDS011;13496;51.040;13.680;2023-01-06T18:00:31;1.83;;;1.08;;
25637;SDS011;13496;51.040;13.680;2023-01-06T18:10:37;1.43;;;1.20;;
25637;SDS011;13496;51.040;13.680;2023-01-06T18:15:42;1.40;;;1.23;;
25637;SDS011;13496;51.040;13.680;2023-01-06T18:21:33;3.17;;;1.30;;
25637;SDS011;13496;51.040;13.680;2023-01-06T18:31:34;1.95;;;1.27;;
25637;SDS011;13496;51.040;13.680;2023-01-06T18:36:38;1.47;;;1.20;;
25637;SDS011;13496;51.040;13.680;2023-01-06T18:41:40;1.17;;;1.00;;
25637;SDS011;13496;51.040;13.680;2023-01-06T18:46:42;1.33;;;1.20;;
25637;SDS011;13496;51.040;13.680;2023-01-06T18:51:44;2.20;;;1.40;;
25637;SDS011;13496;51.040;13.680;2023-01-06T18:56:45;1.83;;;1.02;;
25637;SDS011;13496;51.040;13.680;2023-01-06T19:01:48;3.33;;;1.20;;
25637;SDS011;13496;51.040;13.680;2023-01-06T19:06:51;1.30;;;1.00;;
25637;SDS011;13496;51.040;13.680;2023-01-06T19:12:07;1.92;;;1.10;;
25637;SDS011;13496;51.040;13.680;2023-01-06T19:22:30;1.67;;;1.03;;
25637;SDS011;13496;51.040;13.680;2023-01-06T19:27:38;1.20;;;1.10;;
25637;SDS011;13496;51.040;13.680;2023-01-06T19:32:40;1.50;;;1.20;;
25637;SDS011;13496;51.040;13.680;2023-01-06T19:37:41;1.48;;;1.33;;
25637;SDS011;13496;51.040;13.680;2023-01-06T19:42:43;1.43;;;1.13;;
25637;SDS011;13496;51.040;13.680;2023-01-06T19:47:45;1.30;;;1.20;;
25637;SDS011;13496;51.040;13.680;2023-01-06T19:52:46;1.73;;;1.30;;
25637;SDS011;13496;51.040;13.680;2023-01-06T20:02:59;1.73;;;1.23;;
25637;SDS011;13496;51.040;13.680;2023-01-06T20:08:03;1.20;;;1.00;;
25637;SDS011;13496;51.040;13.680;2023-01-06T20:13:05;1.33;;;1.10;;
25637;SDS011;13496;51.040;13.680;2023-01-06T20:18:06;2.30;;;1.13;;
25637;SDS011;13496;51.040;13.680;2023-01-06T20:23:08;1.20;;;1.10;;
25637;SDS011;13496;51.040;13.680;2023-01-06T20:28:11;1.30;;;1.20;;
25637;SDS011;13496;51.040;13.680;2023-01-06T20:33:13;1.50;;;1.23;;
25637;SDS011;13496;51.040;13.680;2023-01-06T20:38:14;1.42;;;1.20;;
25637;SDS011;13496;51.040;13.680;2023-01-06T20:43:16;3.20;;;1.10;;
25637;SDS011;13496;51.040;13.680;2023-01-06T20:48:18;1.75;;;1.08;;
25637;SDS011;13496;51.040;13.680;2023-01-06T20:53:20;1.30;;;1.20;;
25637;SDS011;13496;51.040;13.680;2023-01-06T20:58:22;2.00;;;1.20;;
25637;SDS011;13496;51.040;13.680;2023-01-06T21:03:24;2.80;;;1.23;;
25637;SDS011;13496;51.040;13.680;2023-01-06T21:08:25;1.43;;;1.00;;
25637;SDS011;13496;51.040;13.680;2023-01-06T21:13:27;1.07;;;1.00;;
25637;SDS011;13496;51.040;13.680;2023-01-06T21:18:29;1.00;;;1.00;;
25637;SDS011;13496;51.040;13.680;2023-01-06T21:23:30;1.73;;;1.27;;
25637;SDS011;13496;51.040;13.680;2023-01-06T21:28:32;1.20;;;0.97;;
25637;SDS011;13496;51.040;13.680;2023-01-06T21:33:34;2.10;;;1.23;;
25637;SDS011;13496;51.040;13.680;2023-01-06T21:38:35;1.00;;;1.00;;
25637;SDS011;13496;51.040;13.680;2023-01-06T21:43:37;1.38;;;1.00;;
25637;SDS011;13496;51.040;13.680;2023-01-06T21:48:39;1.70;;;1.20;;
25637;SDS011;13496;51.040;13.680;2023-01-06T21:53:40;1.30;;;1.20;;
25637;SDS011;13496;51.040;13.680;2023-01-06T21:58:42;1.27;;;1.17;;
25637;SDS011;13496;51.040;13.680;2023-01-06T22:03:44;1.23;;;0.90;;
25637;SDS011;13496;51.040;13.680;2023-01-06T22:08:46;0.80;;;0.80;;
25637;SDS011;13496;51.040;13.680;2023-01-06T22:13:50;1.10;;;1.00;;
25637;SDS011;13496;51.040;13.680;2023-01-06T22:18:53;1.00;;;0.90;;
25637;SDS011;13496;51.040;13.680;2023-01-06T22:23:57;1.53;;;1.00;;
25637;SDS011;13496;51.040;13.680;2023-01-06T22:28:59;1.10;;;1.00;;
25637;SDS011;13496;51.040;13.680;2023-01-06T22:34:00;1.00;;;0.90;;
25637;SDS011;13496;51.040;13.680;2023-01-06T22:39:02;1.70;;;0.88;;
25637;SDS011;13496;51.040;13.680;2023-01-06T22:44:04;1.87;;;1.10;;
25637;SDS011;13496;51.040;13.680;2023-01-06T22:49:06;3.67;;;0.90;;
25637;SDS011;13496;51.040;13.680;2023-01-06T22:54:08;0.90;;;0.88;;
25637;SDS011;13496;51.040;13.680;2023-01-06T22:59:10;0.95;;;0.95;;
25637;SDS011;13496;51.040;13.680;2023-01-06T23:04:11;0.93;;;0.93;;
25637;SDS011;13496;51.040;13.680;2023-01-06T23:09:15;1.03;;;0.93;;
25637;SDS011;13496;51.040;13.680;2023-01-06T23:14:17;0.80;;;0.80;;
25637;SDS011;13496;51.040;13.680;2023-01-06T23:19:18;1.13;;;1.03;;
25637;SDS011;13496;51.040;13.680;2023-01-06T23:24:20;1.40;;;0.90;;
25637;SDS011;13496;51.040;13.680;2023-01-06T23:29:22;0.90;;;0.90;;
25637;SDS011;13496;51.040;13.680;2023-01-06T23:34:23;1.10;;;1.00;;
25637;SDS011;13496;51.040;13.680;2023-01-06T23:39:26;1.10;;;1.00;;
25637;SDS011;13496;51.040;13.680;2023-01-06T23:44:28;0.90;;;0.90;;
25637;SDS011;13496;51.040;13.680;2023-01-06T23:49:29;1.07;;;0.97;;
25637;SDS011;13496;51.040;13.680;2023-01-06T23:54:31;1.10;;;1.00;;
25637;SDS011;13496;51.040;13.680;2023-01-06T23:59:33;0.90;;;0.90;;
